sensor_id;sensor_type;location;lat;lon;timestamp;P1;durP1;ratioP1;P2;durP2;ratioP2
32228;SDS011;18717;48.034;11.186;2023-01-08T00:02:23;19.85;;;15.15;;
32228;SDS011;18717;48.034;11.186;2023-01-08T00:04:51;15.95;;;13.90;;
32228;SDS011;18717;48.034;11.186;2023-01-08T00:07:18;19.23;;;15.20;;
32228;SDS011;18717;48.034;11.186;2023-01-08T00:09:46;19.08;;;14.60;;
32228;SDS011;18717;48.034;11.186;2023-01-08T00:12:15;16.60;;;14.63;;
32228;SDS011;18717;48.034;11.186;2023-01-08T00:14:43;22.55;;;14.35;;
32228;SDS011;18717;48.034;11.186;2023-01-08T00:17:12;21.27;;;15.23;;
32228;SDS011;18717;48.034;11.186;2023-01-08T00:19:39;18.20;;;14.38;;
32228;SDS011;18717;48.034;11.186;2023-01-08T00:22:08;19.40;;;14.02;;
32228;SDS011;18717;48.034;11.186;2023-01-08T00:24:36;18.58;;;13.70;;
32228;SDS011;18717;48.034;11.186;2023-01-08T00:27:04;14.32;;;12.68;;
32228;SDS011;18717;48.034;11.186;2023-01-08T00:29:31;18.90;;;13.88;;
32228;SDS011;18717;48.034;11.186;2023-01-08T00:31:59;18.73;;;13.43;;
32228;SDS011;18717;48.034;11.186;2023-01-08T00:34:28;16.88;;;13.77;;
32228;SDS011;18717;48.034;11.186;2023-01-08T00:36:55;18.58;;;13.15;;
32228;SDS011;18717;48.034;11.186;2023-01-08T00:39:23;18.05;;;13.43;;
32228;SDS011;18717;48.034;11.186;2023-01-08T00:41:51;21.25;;;14.18;;
32228;SDS011;18717;48.034;11.186;2023-01-08T00:44:18;18.58;;;14.57;;
32228;SDS011;18717;48.034;11.186;2023-01-08T00:46:46;17.10;;;14.13;;
32228;SDS011;18717;48.034;11.186;2023-01-08T00:49:13;16.98;;;13.18;;
32228;SDS011;18717;48.034;11.186;2023-01-08T00:51:42;19.75;;;13.10;;
32228;SDS011;18717;48.034;11.186;2023-01-08T00:54:10;17.63;;;12.48;;
32228;SDS011;18717;48.034;11.186;2023-01-08T00:56:38;15.57;;;12.30;;
32228;SDS011;18717;48.034;11.186;2023-01-08T00:59:05;14.25;;;12.65;;
32228;SDS011;18717;48.034;11.186;2023-01-08T01:01:33;17.52;;;12.85;;
32228;SDS011;18717;48.034;11.186;2023-01-08T01:04:01;15.80;;;13.00;;
32228;SDS011;18717;48.034;11.186;2023-01-08T01:06:29;15.23;;;13.57;;
32228;SDS011;18717;48.034;11.186;2023-01-08T01:08:58;18.42;;;12.82;;
32228;SDS011;18717;48.034;11.186;2023-01-08T01:11:26;16.05;;;13.57;;
32228;SDS011;18717;48.034;11.186;2023-01-08T01:13:55;20.92;;;14.38;;
32228;SDS011;18717;48.034;11.186;2023-01-08T01:16:22;14.10;;;12.45;;
32228;SDS011;18717;48.034;11.186;2023-01-08T01:18:50;14.73;;;12.95;;
32228;SDS011;18717;48.034;11.186;2023-01-08T01:21:21;15.15;;;13.45;;
32228;SDS011;18717;48.034;11.186;2023-01-08T01:23:52;16.58;;;13.55;;
32228;SDS011;18717;48.034;11.186;2023-01-08T01:26:21;17.80;;;13.95;;
32228;SDS011;18717;48.034;11.186;2023-01-08T01:28:50;22.67;;;13.43;;
32228;SDS011;18717;48.034;11.186;2023-01-08T01:31:19;18.20;;;13.40;;
32228;SDS011;18717;48.034;11.186;2023-01-08T01:33:47;18.08;;;13.35;;
32228;SDS011;18717;48.034;11.186;2023-01-08T01:36:16;15.88;;;12.68;;
32228;SDS011;18717;48.034;11.186;2023-01-08T01:38:45;17.92;;;13.45;;
32228;SDS011;18717;48.034;11.186;2023-01-08T01:41:17;18.33;;;13.15;;
32228;SDS011;18717;48.034;11.186;2023-01-08T01:43:47;20.85;;;13.27;;
32228;SDS011;18717;48.034;11.186;2023-01-08T01:46:20;17.75;;;13.77;;
32228;SDS011;18717;48.034;11.186;2023-01-08T01:48:51;16.00;;;12.77;;
32228;SDS011;18717;48.034;11.186;2023-01-08T01:51:21;16.55;;;14.10;;
32228;SDS011;18717;48.034;11.186;2023-01-08T01:53:48;17.65;;;12.75;;
32228;SDS011;18717;48.034;11.186;2023-01-08T01:56:16;16.92;;;12.98;;
32228;SDS011;18717;48.034;11.186;2023-01-08T01:58:44;15.10;;;11.88;;
32228;SDS011;18717;48.034;11.186;2023-01-08T02:01:13;16.17;;;12.23;;
32228;SDS011;18717;48.034;11.186;2023-01-08T02:03:41;14.20;;;11.63;;
32228;SDS011;18717;48.034;11.186;2023-01-08T02:06:11;17.65;;;11.23;;
32228;SDS011;18717;48.034;11.186;2023-01-08T02:08:46;15.07;;;11.57;;
32228;SDS011;18717;48.034;11.186;2023-01-08T02:11:21;12.50;;;11.20;;
32228;SDS011;18717;48.034;11.186;2023-01-08T02:13:54;14.80;;;11.00;;
32228;SDS011;18717;48.034;11.186;2023-01-08T02:16:27;13.50;;;11.50;;
32228;SDS011;18717;48.034;11.186;2023-01-08T02:21:26;14.90;;;11.43;;
32228;SDS011;18717;48.034;11.186;2023-01-08T02:23:57;13.93;;;11.05;;
32228;SDS011;18717;48.034;11.186;2023-01-08T02:26:29;15.98;;;12.10;;
32228;SDS011;18717;48.034;11.186;2023-01-08T02:28:58;14.80;;;12.35;;
32228;SDS011;18717;48.034;11.186;2023-01-08T02:31:29;15.35;;;11.60;;
32228;SDS011;18717;48.034;11.186;2023-01-08T02:33:57;14.18;;;11.45;;
32228;SDS011;18717;48.034;11.186;2023-01-08T02:36:33;13.68;;;11.40;;
32228;SDS011;18717;48.034;11.186;2023-01-08T02:39:14;14.10;;;11.90;;
32228;SDS011;18717;48.034;11.186;2023-01-08T02:41:52;14.27;;;11.45;;
32228;SDS011;18717;48.034;11.186;2023-01-08T02:44:26;16.70;;;12.07;;
32228;SDS011;18717;48.034;11.186;2023-01-08T02:47:01;14.50;;;11.48;;
32228;SDS011;18717;48.034;11.186;2023-01-08T02:49:29;15.68;;;11.27;;
32228;SDS011;18717;48.034;11.186;2023-01-08T02:51:58;16.85;;;11.35;;
32228;SDS011;18717;48.034;11.186;2023-01-08T02:54:28;15.27;;;11.82;;
32228;SDS011;18717;48.034;11.186;2023-01-08T02:56:59;10.50;;;8.23;;
32228;SDS011;18717;48.034;11.186;2023-01-08T03:01:58;12.45;;;10.48;;
32228;SDS011;18717;48.034;11.186;2023-01-08T03:04:27;13.77;;;11.68;;
32228;SDS011;18717;48.034;11.186;2023-01-08T03:06:57;12.85;;;10.88;;
32228;SDS011;18717;48.034;11.186;2023-01-08T03:09:25;15.13;;;11.65;;
32228;SDS011;18717;48.034;11.186;2023-01-08T03:11:55;11.77;;;10.57;;
32228;SDS011;18717;48.034;11.186;2023-01-08T03:14:27;15.90;;;11.07;;
32228;SDS011;18717;48.034;11.186;2023-01-08T03:16:57;10.07;;;8.43;;
32228;SDS011;18717;48.034;11.186;2023-01-08T03:19:30;12.75;;;11.13;;
32228;SDS011;18717;48.034;11.186;2023-01-08T03:21:59;13.13;;;10.45;;
32228;SDS011;18717;48.034;11.186;2023-01-08T03:24:27;11.82;;;10.18;;
32228;SDS011;18717;48.034;11.186;2023-01-08T03:26:58;12.02;;;10.75;;
32228;SDS011;18717;48.034;11.186;2023-01-08T03:29:30;10.60;;;9.48;;
32228;SDS011;18717;48.034;11.186;2023-01-08T03:31:59;15.68;;;10.10;;
32228;SDS011;18717;48.034;11.186;2023-01-08T03:34:29;13.85;;;11.02;;
32228;SDS011;18717;48.034;11.186;2023-01-08T03:36:57;14.90;;;10.60;;
32228;SDS011;18717;48.034;11.186;2023-01-08T03:39:27;13.50;;;11.05;;
32228;SDS011;18717;48.034;11.186;2023-01-08T03:41:58;14.00;;;10.65;;
32228;SDS011;18717;48.034;11.186;2023-01-08T03:44:27;12.38;;;11.00;;
32228;SDS011;18717;48.034;11.186;2023-01-08T03:46:56;12.73;;;10.00;;
32228;SDS011;18717;48.034;11.186;2023-01-08T03:49:25;11.65;;;9.60;;
32228;SDS011;18717;48.034;11.186;2023-01-08T03:51:53;14.23;;;11.57;;
32228;SDS011;18717;48.034;11.186;2023-01-08T03:54:21;11.77;;;9.20;;
32228;SDS011;18717;48.034;11.186;2023-01-08T03:56:51;11.68;;;10.48;;
32228;SDS011;18717;48.034;11.186;2023-01-08T03:59:18;11.50;;;10.05;;
32228;SDS011;18717;48.034;11.186;2023-01-08T04:01:47;12.55;;;10.27;;
32228;SDS011;18717;48.034;11.186;2023-01-08T04:04:15;10.30;;;9.30;;
32228;SDS011;18717;48.034;11.186;2023-01-08T04:06:43;10.43;;;9.25;;
32228;SDS011;18717;48.034;11.186;2023-01-08T04:09:11;10.05;;;8.95;;
32228;SDS011;18717;48.034;11.186;2023-01-08T04:11:38;12.90;;;9.88;;
32228;SDS011;18717;48.034;11.186;2023-01-08T04:14:06;9.45;;;8.35;;
32228;SDS011;18717;48.034;11.186;2023-01-08T04:16:34;11.23;;;10.05;;
32228;SDS011;18717;48.034;11.186;2023-01-08T04:19:03;10.85;;;9.35;;
32228;SDS011;18717;48.034;11.186;2023-01-08T04:21:30;12.27;;;9.63;;
32228;SDS011;18717;48.034;11.186;2023-01-08T04:23:58;11.10;;;9.93;;
32228;SDS011;18717;48.034;11.186;2023-01-08T04:26:25;11.43;;;10.02;;
32228;SDS011;18717;48.034;11.186;2023-01-08T04:28:53;11.38;;;9.98;;
32228;SDS011;18717;48.034;11.186;2023-01-08T04:31:20;13.50;;;10.43;;
32228;SDS011;18717;48.034;11.186;2023-01-08T04:33:48;13.30;;;9.98;;
32228;SDS011;18717;48.034;11.186;2023-01-08T04:36:17;12.07;;;10.18;;
32228;SDS011;18717;48.034;11.186;2023-01-08T04:38:45;12.68;;;10.20;;
32228;SDS011;18717;48.034;11.186;2023-01-08T04:41:13;11.30;;;9.63;;
32228;SDS011;18717;48.034;11.186;2023-01-08T04:43:43;12.18;;;9.50;;
32228;SDS011;18717;48.034;11.186;2023-01-08T04:46:11;10.25;;;9.23;;
32228;SDS011;18717;48.034;11.186;2023-01-08T04:48:38;10.55;;;9.32;;
32228;SDS011;18717;48.034;11.186;2023-01-08T04:51:06;12.15;;;10.05;;
32228;SDS011;18717;48.034;11.186;2023-01-08T04:53:36;13.70;;;9.15;;
32228;SDS011;18717;48.034;11.186;2023-01-08T04:56:06;11.20;;;9.95;;
32228;SDS011;18717;48.034;11.186;2023-01-08T04:58:35;11.70;;;9.10;;
32228;SDS011;18717;48.034;11.186;2023-01-08T05:01:08;12.90;;;9.25;;
32228;SDS011;18717;48.034;11.186;2023-01-08T05:03:37;10.95;;;8.45;;
32228;SDS011;18717;48.034;11.186;2023-01-08T05:06:05;10.95;;;9.57;;
32228;SDS011;18717;48.034;11.186;2023-01-08T05:08:33;9.95;;;8.38;;
32228;SDS011;18717;48.034;11.186;2023-01-08T05:11:02;9.63;;;8.40;;
32228;SDS011;18717;48.034;11.186;2023-01-08T05:13:30;9.52;;;8.63;;
32228;SDS011;18717;48.034;11.186;2023-01-08T05:15:58;11.23;;;9.05;;
32228;SDS011;18717;48.034;11.186;2023-01-08T05:18:26;9.82;;;8.82;;
32228;SDS011;18717;48.034;11.186;2023-01-08T05:20:54;11.38;;;8.27;;
32228;SDS011;18717;48.034;11.186;2023-01-08T05:23:26;11.93;;;8.82;;
32228;SDS011;18717;48.034;11.186;2023-01-08T05:25:55;10.07;;;8.50;;
32228;SDS011;18717;48.034;11.186;2023-01-08T05:28:25;10.88;;;9.30;;
32228;SDS011;18717;48.034;11.186;2023-01-08T05:30:53;14.10;;;8.82;;
32228;SDS011;18717;48.034;11.186;2023-01-08T05:33:21;10.13;;;9.10;;
32228;SDS011;18717;48.034;11.186;2023-01-08T05:35:49;9.65;;;8.63;;
32228;SDS011;18717;48.034;11.186;2023-01-08T05:38:17;9.13;;;7.88;;
32228;SDS011;18717;48.034;11.186;2023-01-08T05:40:44;9.15;;;8.25;;
32228;SDS011;18717;48.034;11.186;2023-01-08T05:43:12;10.23;;;8.75;;
32228;SDS011;18717;48.034;11.186;2023-01-08T05:45:41;9.85;;;8.52;;
32228;SDS011;18717;48.034;11.186;2023-01-08T05:48:08;9.88;;;8.20;;
32228;SDS011;18717;48.034;11.186;2023-01-08T05:50:36;9.98;;;8.98;;
32228;SDS011;18717;48.034;11.186;2023-01-08T05:53:04;10.73;;;8.70;;
32228;SDS011;18717;48.034;11.186;2023-01-08T05:55:32;9.55;;;8.02;;
32228;SDS011;18717;48.034;11.186;2023-01-08T05:58:00;8.65;;;7.93;;
32228;SDS011;18717;48.034;11.186;2023-01-08T06:00:28;8.73;;;7.85;;
32228;SDS011;18717;48.034;11.186;2023-01-08T06:02:58;9.00;;;8.10;;
32228;SDS011;18717;48.034;11.186;2023-01-08T06:05:25;9.38;;;8.27;;
32228;SDS011;18717;48.034;11.186;2023-01-08T06:07:53;8.35;;;7.55;;
32228;SDS011;18717;48.034;11.186;2023-01-08T06:10:21;9.63;;;7.97;;
32228;SDS011;18717;48.034;11.186;2023-01-08T06:12:49;8.93;;;8.02;;
32228;SDS011;18717;48.034;11.186;2023-01-08T06:15:16;9.43;;;8.45;;
32228;SDS011;18717;48.034;11.186;2023-01-08T06:17:44;9.77;;;8.77;;
32228;SDS011;18717;48.034;11.186;2023-01-08T06:20:13;14.23;;;9.25;;
32228;SDS011;18717;48.034;11.186;2023-01-08T06:22:41;15.25;;;9.07;;
32228;SDS011;18717;48.034;11.186;2023-01-08T06:25:09;11.35;;;7.70;;
32228;SDS011;18717;48.034;11.186;2023-01-08T06:27:36;10.65;;;9.13;;
32228;SDS011;18717;48.034;11.186;2023-01-08T06:30:06;10.02;;;7.65;;
32228;SDS011;18717;48.034;11.186;2023-01-08T06:32:34;9.63;;;8.73;;
32228;SDS011;18717;48.034;11.186;2023-01-08T06:35:02;8.95;;;8.05;;
32228;SDS011;18717;48.034;11.186;2023-01-08T06:37:32;9.13;;;8.18;;
32228;SDS011;18717;48.034;11.186;2023-01-08T06:40:00;9.60;;;8.70;;
32228;SDS011;18717;48.034;11.186;2023-01-08T06:42:27;10.20;;;9.20;;
32228;SDS011;18717;48.034;11.186;2023-01-08T06:44:55;10.30;;;7.82;;
32228;SDS011;18717;48.034;11.186;2023-01-08T06:47:22;8.45;;;7.72;;
32228;SDS011;18717;48.034;11.186;2023-01-08T06:49:50;14.57;;;8.80;;
32228;SDS011;18717;48.034;11.186;2023-01-08T06:52:18;9.02;;;8.15;;
32228;SDS011;18717;48.034;11.186;2023-01-08T06:54:47;9.23;;;8.32;;
32228;SDS011;18717;48.034;11.186;2023-01-08T06:57:14;9.32;;;8.52;;
32228;SDS011;18717;48.034;11.186;2023-01-08T06:59:42;13.00;;;9.77;;
32228;SDS011;18717;48.034;11.186;2023-01-08T07:02:10;16.35;;;11.57;;
32228;SDS011;18717;48.034;11.186;2023-01-08T07:04:40;13.75;;;10.65;;
32228;SDS011;18717;48.034;11.186;2023-01-08T07:07:08;11.52;;;10.43;;
32228;SDS011;18717;48.034;11.186;2023-01-08T07:09:37;11.73;;;10.63;;
32228;SDS011;18717;48.034;11.186;2023-01-08T07:12:09;8.50;;;7.75;;
32228;SDS011;18717;48.034;11.186;2023-01-08T07:14:38;13.77;;;10.27;;
32228;SDS011;18717;48.034;11.186;2023-01-08T07:17:05;23.88;;;12.98;;
32228;SDS011;18717;48.034;11.186;2023-01-08T07:19:33;9.60;;;8.50;;
32228;SDS011;18717;48.034;11.186;2023-01-08T07:22:01;10.38;;;9.32;;
32228;SDS011;18717;48.034;11.186;2023-01-08T07:24:29;17.88;;;12.82;;
32228;SDS011;18717;48.034;11.186;2023-01-08T07:26:56;26.05;;;15.15;;
32228;SDS011;18717;48.034;11.186;2023-01-08T07:29:25;13.43;;;10.27;;
32228;SDS011;18717;48.034;11.186;2023-01-08T07:31:53;11.13;;;9.27;;
32228;SDS011;18717;48.034;11.186;2023-01-08T07:34:21;9.55;;;8.55;;
32228;SDS011;18717;48.034;11.186;2023-01-08T07:36:48;9.07;;;7.65;;
32228;SDS011;18717;48.034;11.186;2023-01-08T07:39:16;9.48;;;8.23;;
32228;SDS011;18717;48.034;11.186;2023-01-08T07:41:44;7.95;;;7.22;;
32228;SDS011;18717;48.034;11.186;2023-01-08T07:44:11;8.20;;;7.53;;
32228;SDS011;18717;48.034;11.186;2023-01-08T07:46:40;8.75;;;8.05;;
32228;SDS011;18717;48.034;11.186;2023-01-08T07:49:08;13.10;;;10.25;;
32228;SDS011;18717;48.034;11.186;2023-01-08T07:51:36;10.25;;;9.35;;
32228;SDS011;18717;48.034;11.186;2023-01-08T07:54:03;11.55;;;10.35;;
32228;SDS011;18717;48.034;11.186;2023-01-08T07:56:31;16.10;;;12.45;;
32228;SDS011;18717;48.034;11.186;2023-01-08T07:58:59;11.95;;;9.95;;
32228;SDS011;18717;48.034;11.186;2023-01-08T08:01:27;10.77;;;9.68;;
32228;SDS011;18717;48.034;11.186;2023-01-08T08:03:56;10.40;;;8.07;;
32228;SDS011;18717;48.034;11.186;2023-01-08T08:06:24;8.30;;;7.50;;
32228;SDS011;18717;48.034;11.186;2023-01-08T08:08:51;7.63;;;6.90;;
32228;SDS011;18717;48.034;11.186;2023-01-08T08:11:19;9.15;;;8.07;;
32228;SDS011;18717;48.034;11.186;2023-01-08T08:13:48;9.93;;;9.13;;
32228;SDS011;18717;48.034;11.186;2023-01-08T08:18:46;8.93;;;8.05;;
32228;SDS011;18717;48.034;11.186;2023-01-08T08:21:15;8.20;;;7.55;;
32228;SDS011;18717;48.034;11.186;2023-01-08T08:23:43;8.70;;;7.50;;
32228;SDS011;18717;48.034;11.186;2023-01-08T08:26:10;14.13;;;10.85;;
32228;SDS011;18717;48.034;11.186;2023-01-08T08:28:38;9.82;;;8.98;;
32228;SDS011;18717;48.034;11.186;2023-01-08T08:31:06;7.30;;;6.60;;
32228;SDS011;18717;48.034;11.186;2023-01-08T08:33:33;6.60;;;6.10;;
32228;SDS011;18717;48.034;11.186;2023-01-08T08:36:01;7.88;;;7.18;;
32228;SDS011;18717;48.034;11.186;2023-01-08T08:38:30;7.82;;;7.22;;
32228;SDS011;18717;48.034;11.186;2023-01-08T08:40:58;9.45;;;8.65;;
32228;SDS011;18717;48.034;11.186;2023-01-08T08:43:26;8.98;;;8.07;;
32228;SDS011;18717;48.034;11.186;2023-01-08T08:45:54;10.93;;;9.93;;
32228;SDS011;18717;48.034;11.186;2023-01-08T08:48:22;10.00;;;8.55;;
32228;SDS011;18717;48.034;11.186;2023-01-08T08:50:50;9.32;;;8.43;;
32228;SDS011;18717;48.034;11.186;2023-01-08T08:53:17;9.13;;;8.35;;
32228;SDS011;18717;48.034;11.186;2023-01-08T08:55:46;9.27;;;8.57;;
32228;SDS011;18717;48.034;11.186;2023-01-08T08:58:14;9.30;;;8.38;;
32228;SDS011;18717;48.034;11.186;2023-01-08T09:00:42;31.23;;;14.45;;
32228;SDS011;18717;48.034;11.186;2023-01-08T09:03:11;22.90;;;13.98;;
32228;SDS011;18717;48.034;11.186;2023-01-08T09:05:39;10.95;;;9.18;;
32228;SDS011;18717;48.034;11.186;2023-01-08T09:08:08;10.23;;;9.25;;
32228;SDS011;18717;48.034;11.186;2023-01-08T09:10:36;8.63;;;7.75;;
32228;SDS011;18717;48.034;11.186;2023-01-08T09:13:05;24.42;;;13.27;;
32228;SDS011;18717;48.034;11.186;2023-01-08T09:15:33;16.92;;;11.73;;
32228;SDS011;18717;48.034;11.186;2023-01-08T09:18:02;18.67;;;13.30;;
32228;SDS011;18717;48.034;11.186;2023-01-08T09:20:29;17.70;;;15.80;;
32228;SDS011;18717;48.034;11.186;2023-01-08T09:22:57;23.90;;;16.80;;
32228;SDS011;18717;48.034;11.186;2023-01-08T09:25:26;47.17;;;23.00;;
32228;SDS011;18717;48.034;11.186;2023-01-08T09:28:00;38.92;;;23.42;;
32228;SDS011;18717;48.034;11.186;2023-01-08T09:30:29;20.42;;;15.13;;
32228;SDS011;18717;48.034;11.186;2023-01-08T09:32:57;12.98;;;11.55;;
32228;SDS011;18717;48.034;11.186;2023-01-08T09:35:28;15.60;;;12.57;;
32228;SDS011;18717;48.034;11.186;2023-01-08T09:37:56;14.40;;;12.75;;
32228;SDS011;18717;48.034;11.186;2023-01-08T09:40:24;10.75;;;9.65;;
32228;SDS011;18717;48.034;11.186;2023-01-08T09:42:55;11.88;;;10.20;;
32228;SDS011;18717;48.034;11.186;2023-01-08T09:45:26;10.48;;;9.57;;
32228;SDS011;18717;48.034;11.186;2023-01-08T09:47:56;12.25;;;10.75;;
32228;SDS011;18717;48.034;11.186;2023-01-08T09:50:26;16.10;;;9.80;;
32228;SDS011;18717;48.034;11.186;2023-01-08T09:52:55;10.85;;;9.98;;
32228;SDS011;18717;48.034;11.186;2023-01-08T09:55:23;9.82;;;8.88;;
32228;SDS011;18717;48.034;11.186;2023-01-08T09:57:51;9.80;;;9.10;;
32228;SDS011;18717;48.034;11.186;2023-01-08T10:00:20;9.43;;;8.73;;
32228;SDS011;18717;48.034;11.186;2023-01-08T10:02:51;11.27;;;9.45;;
32228;SDS011;18717;48.034;11.186;2023-01-08T10:05:21;9.90;;;8.93;;
32228;SDS011;18717;48.034;11.186;2023-01-08T10:07:49;10.75;;;9.85;;
32228;SDS011;18717;48.034;11.186;2023-01-08T10:10:18;12.10;;;11.00;;
32228;SDS011;18717;48.034;11.186;2023-01-08T10:12:49;12.43;;;10.70;;
32228;SDS011;18717;48.034;11.186;2023-01-08T10:15:19;11.43;;;10.23;;
32228;SDS011;18717;48.034;11.186;2023-01-08T10:17:47;11.82;;;10.68;;
32228;SDS011;18717;48.034;11.186;2023-01-08T10:20:20;11.25;;;10.25;;
32228;SDS011;18717;48.034;11.186;2023-01-08T10:22:51;11.23;;;10.27;;
32228;SDS011;18717;48.034;11.186;2023-01-08T10:25:20;11.88;;;10.70;;
32228;SDS011;18717;48.034;11.186;2023-01-08T10:31:45;9.95;;;9.15;;
32228;SDS011;18717;48.034;11.186;2023-01-08T10:34:19;11.07;;;10.10;;
32228;SDS011;18717;48.034;11.186;2023-01-08T10:36:53;10.30;;;9.40;;
32228;SDS011;18717;48.034;11.186;2023-01-08T10:39:25;11.15;;;10.07;;
32228;SDS011;18717;48.034;11.186;2023-01-08T10:42:04;11.93;;;10.75;;
32228;SDS011;18717;48.034;11.186;2023-01-08T10:44:47;11.48;;;10.43;;
32228;SDS011;18717;48.034;11.186;2023-01-08T10:47:36;11.00;;;10.10;;
32228;SDS011;18717;48.034;11.186;2023-01-08T10:50:05;11.27;;;10.32;;
32228;SDS011;18717;48.034;11.186;2023-01-08T10:52:49;12.88;;;11.75;;
32228;SDS011;18717;48.034;11.186;2023-01-08T10:55:21;14.50;;;13.13;;
32228;SDS011;18717;48.034;11.186;2023-01-08T10:57:53;10.55;;;9.60;;
32228;SDS011;18717;48.034;11.186;2023-01-08T11:00:27;12.82;;;11.63;;
32228;SDS011;18717;48.034;11.186;2023-01-08T11:02:59;10.32;;;9.43;;
32228;SDS011;18717;48.034;11.186;2023-01-08T11:05:29;10.25;;;9.55;;
32228;SDS011;18717;48.034;11.186;2023-01-08T11:08:00;10.35;;;9.65;;
32228;SDS011;18717;48.034;11.186;2023-01-08T11:10:31;9.93;;;9.25;;
32228;SDS011;18717;48.034;11.186;2023-01-08T11:13:01;9.10;;;8.40;;
32228;SDS011;18717;48.034;11.186;2023-01-08T11:15:32;9.43;;;8.55;;
32228;SDS011;18717;48.034;11.186;2023-01-08T11:18:05;11.55;;;10.52;;
32228;SDS011;18717;48.034;11.186;2023-01-08T11:20:36;11.00;;;10.07;;
32228;SDS011;18717;48.034;11.186;2023-01-08T11:23:10;15.30;;;13.80;;
32228;SDS011;18717;48.034;11.186;2023-01-08T11:25:42;11.02;;;10.13;;
32228;SDS011;18717;48.034;11.186;2023-01-08T11:28:14;10.90;;;10.00;;
32228;SDS011;18717;48.034;11.186;2023-01-08T11:30:47;14.82;;;11.85;;
32228;SDS011;18717;48.034;11.186;2023-01-08T11:33:20;10.68;;;9.55;;
32228;SDS011;18717;48.034;11.186;2023-01-08T11:35:51;9.57;;;8.73;;
32228;SDS011;18717;48.034;11.186;2023-01-08T11:38:23;10.35;;;9.65;;
32228;SDS011;18717;48.034;11.186;2023-01-08T11:40:52;10.50;;;9.50;;
32228;SDS011;18717;48.034;11.186;2023-01-08T11:43:26;11.23;;;10.32;;
32228;SDS011;18717;48.034;11.186;2023-01-08T11:46:04;10.60;;;9.77;;
32228;SDS011;18717;48.034;11.186;2023-01-08T11:48:44;10.93;;;10.07;;
32228;SDS011;18717;48.034;11.186;2023-01-08T11:51:29;10.93;;;10.13;;
32228;SDS011;18717;48.034;11.186;2023-01-08T11:54:11;9.55;;;8.95;;
32228;SDS011;18717;48.034;11.186;2023-01-08T11:56:49;11.38;;;10.30;;
32228;SDS011;18717;48.034;11.186;2023-01-08T11:59:25;9.70;;;9.00;;
32228;SDS011;18717;48.034;11.186;2023-01-08T12:02:19;9.35;;;8.75;;
32228;SDS011;18717;48.034;11.186;2023-01-08T12:07:51;11.70;;;10.80;;
32228;SDS011;18717;48.034;11.186;2023-01-08T12:10:29;12.30;;;11.60;;
32228;SDS011;18717;48.034;11.186;2023-01-08T12:13:12;13.70;;;12.73;;
32228;SDS011;18717;48.034;11.186;2023-01-08T12:15:49;11.30;;;10.30;;
32228;SDS011;18717;48.034;11.186;2023-01-08T12:18:28;10.98;;;10.18;;
32228;SDS011;18717;48.034;11.186;2023-01-08T12:21:12;10.57;;;9.43;;
32228;SDS011;18717;48.034;11.186;2023-01-08T12:23:52;11.75;;;10.60;;
32228;SDS011;18717;48.034;11.186;2023-01-08T12:26:29;11.20;;;10.05;;
32228;SDS011;18717;48.034;11.186;2023-01-08T12:29:07;11.05;;;10.15;;
32228;SDS011;18717;48.034;11.186;2023-01-08T12:32:01;11.13;;;10.02;;
32228;SDS011;18717;48.034;11.186;2023-01-08T12:34:37;11.10;;;10.15;;
32228;SDS011;18717;48.034;11.186;2023-01-08T12:37:11;11.85;;;10.80;;
32228;SDS011;18717;48.034;11.186;2023-01-08T12:39:44;17.75;;;13.45;;
32228;SDS011;18717;48.034;11.186;2023-01-08T12:42:17;12.48;;;11.27;;
32228;SDS011;18717;48.034;11.186;2023-01-08T12:44:50;11.75;;;10.85;;
32228;SDS011;18717;48.034;11.186;2023-01-08T12:47:21;11.90;;;10.77;;
32228;SDS011;18717;48.034;11.186;2023-01-08T12:49:53;12.30;;;11.35;;
32228;SDS011;18717;48.034;11.186;2023-01-08T12:52:26;17.67;;;14.07;;
32228;SDS011;18717;48.034;11.186;2023-01-08T12:55:03;31.40;;;16.45;;
32228;SDS011;18717;48.034;11.186;2023-01-08T12:57:39;30.75;;;16.92;;
32228;SDS011;18717;48.034;11.186;2023-01-08T13:00:14;23.85;;;14.43;;
32228;SDS011;18717;48.034;11.186;2023-01-08T13:02:48;13.82;;;11.35;;
32228;SDS011;18717;48.034;11.186;2023-01-08T13:05:27;21.77;;;14.43;;
32228;SDS011;18717;48.034;11.186;2023-01-08T13:07:57;56.05;;;22.63;;
32228;SDS011;18717;48.034;11.186;2023-01-08T13:10:31;46.70;;;22.77;;
32228;SDS011;18717;48.034;11.186;2023-01-08T13:13:03;27.88;;;17.70;;
32228;SDS011;18717;48.034;11.186;2023-01-08T13:15:32;24.13;;;14.98;;
32228;SDS011;18717;48.034;11.186;2023-01-08T13:18:04;47.97;;;21.02;;
32228;SDS011;18717;48.034;11.186;2023-01-08T13:20:34;29.63;;;17.05;;
32228;SDS011;18717;48.034;11.186;2023-01-08T13:23:03;24.25;;;15.95;;
32228;SDS011;18717;48.034;11.186;2023-01-08T13:25:32;14.73;;;13.35;;
32228;SDS011;18717;48.034;11.186;2023-01-08T13:28:04;12.25;;;11.05;;
32228;SDS011;18717;48.034;11.186;2023-01-08T13:30:44;13.02;;;11.93;;
32228;SDS011;18717;48.034;11.186;2023-01-08T13:33:22;13.55;;;12.38;;
32228;SDS011;18717;48.034;11.186;2023-01-08T13:38:57;10.90;;;10.00;;
32228;SDS011;18717;48.034;11.186;2023-01-08T13:41:26;11.00;;;9.90;;
32228;SDS011;18717;48.034;11.186;2023-01-08T13:43:59;10.55;;;9.75;;
32228;SDS011;18717;48.034;11.186;2023-01-08T13:58:14;11.30;;;10.30;;
32228;SDS011;18717;48.034;11.186;2023-01-08T14:00:44;11.18;;;9.77;;
32228;SDS011;18717;48.034;11.186;2023-01-08T14:03:23;10.40;;;9.40;;
32228;SDS011;18717;48.034;11.186;2023-01-08T14:05:51;10.10;;;9.40;;
32228;SDS011;18717;48.034;11.186;2023-01-08T14:08:20;10.65;;;9.63;;
32228;SDS011;18717;48.034;11.186;2023-01-08T14:10:48;11.40;;;10.30;;
32228;SDS011;18717;48.034;11.186;2023-01-08T14:13:17;11.60;;;10.55;;
32228;SDS011;18717;48.034;11.186;2023-01-08T14:18:15;14.40;;;11.20;;
32228;SDS011;18717;48.034;11.186;2023-01-08T14:20:43;12.73;;;11.65;;
32228;SDS011;18717;48.034;11.186;2023-01-08T14:23:16;21.10;;;16.97;;
32228;SDS011;18717;48.034;11.186;2023-01-08T14:25:46;14.18;;;12.77;;
32228;SDS011;18717;48.034;11.186;2023-01-08T14:28:15;12.35;;;11.25;;
32228;SDS011;18717;48.034;11.186;2023-01-08T14:30:46;13.70;;;12.18;;
32228;SDS011;18717;48.034;11.186;2023-01-08T14:33:14;13.60;;;12.23;;
32228;SDS011;18717;48.034;11.186;2023-01-08T14:35:42;14.23;;;12.02;;
32228;SDS011;18717;48.034;11.186;2023-01-08T14:38:10;12.05;;;10.98;;
32228;SDS011;18717;48.034;11.186;2023-01-08T14:40:40;12.05;;;11.02;;
32228;SDS011;18717;48.034;11.186;2023-01-08T14:43:10;15.55;;;13.45;;
32228;SDS011;18717;48.034;11.186;2023-01-08T14:45:43;22.08;;;17.83;;
32228;SDS011;18717;48.034;11.186;2023-01-08T14:48:15;13.25;;;12.05;;
32228;SDS011;18717;48.034;11.186;2023-01-08T14:50:51;13.43;;;12.02;;
32228;SDS011;18717;48.034;11.186;2023-01-08T14:53:24;12.85;;;11.35;;
32228;SDS011;18717;48.034;11.186;2023-01-08T14:55:54;12.68;;;11.32;;
32228;SDS011;18717;48.034;11.186;2023-01-08T14:58:23;11.18;;;10.05;;
32228;SDS011;18717;48.034;11.186;2023-01-08T15:00:55;12.02;;;10.95;;
32228;SDS011;18717;48.034;11.186;2023-01-08T15:03:27;12.25;;;11.18;;
32228;SDS011;18717;48.034;11.186;2023-01-08T15:05:59;13.93;;;12.40;;